Time;durP1;ratioP1;P1;durP2;ratioP2;P2;SDS_P1;SDS_P2;PMS_P1;PMS_P2;Temp;Humidity;BMP_temperature;BMP_pressure;BME280_temperature;BME280_humidity;BME280_pressure;Samples;Min_cycle;Max_cycle;Signal;HPM_P1;HPM_P2
2024/04/17 00:00:58;;;;;;;;;2.00;1.00;;;;;;;;5448911;26;8851;-73
2024/04/17 00:03:23;;;;;;;;;1.00;1.00;;;;;;;;5448281;26;8859;-73
2024/04/17 00:05:49;;;;;;;;;1.00;1.00;;;;;;;;5448730;26;8839;-73
2024/04/17 00:08:14;;;;;;;;;0.50;0.50;;;;;;;;5448743;26;8848;-73
2024/04/17 00:10:39;;;;;;;;;0.00;0.00;;;;;;;;5448919;26;8839;-72
2024/04/17 00:13:05;;;;;;;;;2.50;1.75;;;;;;;;5446109;26;8832;-72
2024/04/17 00:15:30;;;;;;;;;2.25;1.25;;;;;;;;5448355;26;8848;-73
2024/04/17 00:17:55;;;;;;;;;2.25;1.00;;;;;;;;5448434;26;8831;-73
2024/04/17 00:20:20;;;;;;;;;0.00;0.00;;;;;;;;5448358;26;8874;-72
2024/04/17 00:22:46;;;;;;;;;1.25;0.00;;;;;;;;5448115;26;8858;-72
2024/04/17 00:25:11;;;;;;;;;0.00;0.00;;;;;;;;5445999;26;9013;-72
2024/04/17 00:27:36;;;;;;;;;1.00;0.00;;;;;;;;5448253;26;8955;-72
2024/04/17 00:30:01;;;;;;;;;4.00;0.75;;;;;;;;5448232;26;8862;-72
2024/04/17 00:32:27;;;;;;;;;0.75;0.50;;;;;;;;5447914;26;8871;-73
2024/04/17 00:34:52;;;;;;;;;0.00;0.00;;;;;;;;5448034;26;8847;-72
2024/04/17 00:37:18;;;;;;;;;1.50;0.75;;;;;;;;5447774;26;8964;-73
2024/04/17 00:39:43;;;;;;;;;0.00;0.00;;;;;;;;5447957;26;8832;-73
2024/04/17 00:42:08;;;;;;;;;2.00;0.00;;;;;;;;5446006;26;8920;-73
2024/04/17 00:44:33;;;;;;;;;0.75;0.75;;;;;;;;5445806;26;8840;-73
2024/04/17 00:46:59;;;;;;;;;0.00;0.00;;;;;;;;5447636;26;8820;-74
2024/04/17 00:49:24;;;;;;;;;1.00;0.00;;;;;;;;5447796;26;8883;-74
2024/04/17 00:51:50;;;;;;;;;3.00;0.50;;;;;;;;5445851;26;8832;-74
2024/04/17 00:54:16;;;;;;;;;0.25;0.25;;;;;;;;5447524;26;9573;-74
2024/04/17 00:56:41;;;;;;;;;0.00;0.00;;;;;;;;5447670;26;8859;-74
2024/04/17 00:59:07;;;;;;;;;1.00;1.00;;;;;;;;5445503;26;8847;-74
2024/04/17 01:01:32;;;;;;;;;2.00;1.00;;;;;;;;5445153;26;9760;-74
2024/04/17 01:03:58;;;;;;;;;1.75;0.25;;;;;;;;5447793;26;11471;-73
2024/04/17 01:06:23;;;;;;;;;0.00;0.00;;;;;;;;5447394;26;8835;-74
2024/04/17 01:08:48;;;;;;;;;0.00;0.00;;;;;;;;5445556;26;8840;-73
2024/04/17 01:11:13;;;;;;;;;0.75;0.00;;;;;;;;5447797;26;8881;-73
2024/04/17 01:13:39;;;;;;;;;1.00;0.75;;;;;;;;5447493;26;8890;-74
2024/04/17 01:16:04;;;;;;;;;0.50;0.00;;;;;;;;5447023;26;8831;-74
2024/04/17 01:18:30;;;;;;;;;0.00;0.00;;;;;;;;5447952;26;8874;-73
2024/04/17 01:20:55;;;;;;;;;0.00;0.00;;;;;;;;5447535;26;8862;-73
2024/04/17 01:23:21;;;;;;;;;1.75;0.75;;;;;;;;5447317;26;11489;-73
2024/04/17 01:25:48;;;;;;;;;1.75;0.00;;;;;;;;5447663;26;8843;-73
2024/04/17 01:28:13;;;;;;;;;0.50;0.50;;;;;;;;5447643;26;9583;-72
2024/04/17 01:30:39;;;;;;;;;0.00;0.00;;;;;;;;5447212;26;11677;-73
2024/04/17 01:33:04;;;;;;;;;0.00;0.00;;;;;;;;5447283;26;9138;-73
2024/04/17 01:35:29;;;;;;;;;1.00;0.00;;;;;;;;5446886;26;9561;-73
2024/04/17 01:37:54;;;;;;;;;0.00;0.00;;;;;;;;5447171;26;9583;-72
2024/04/17 01:40:20;;;;;;;;;0.00;0.00;;;;;;;;5446756;26;9712;-72
2024/04/17 01:42:45;;;;;;;;;0.00;0.00;;;;;;;;5446835;26;8935;-72
2024/04/17 01:45:10;;;;;;;;;0.00;0.00;;;;;;;;5447209;26;8886;-73
2024/04/17 01:47:35;;;;;;;;;1.75;0.00;;;;;;;;5446825;26;8866;-73
2024/04/17 01:50:01;;;;;;;;;0.75;0.00;;;;;;;;5447504;26;8920;-74
2024/04/17 01:52:27;;;;;;;;;0.00;0.00;;;;;;;;5447235;26;8848;-73
2024/04/17 01:54:52;;;;;;;;;0.00;0.00;;;;;;;;5447344;26;11488;-73
2024/04/17 01:57:17;;;;;;;;;2.00;0.00;;;;;;;;5445289;26;8831;-73
2024/04/17 01:59:42;;;;;;;;;2.00;0.50;;;;;;;;5446923;26;9372;-73
2024/04/17 02:02:08;;;;;;;;;0.00;0.00;;;;;;;;5446762;26;8843;-73
2024/04/17 02:04:33;;;;;;;;;0.00;0.00;;;;;;;;5446944;26;9611;-72
2024/04/17 02:06:58;;;;;;;;;0.00;0.00;;;;;;;;5446638;26;8878;-73
2024/04/17 02:09:23;;;;;;;;;1.00;0.00;;;;;;;;5446853;26;8855;-73
2024/04/17 02:11:49;;;;;;;;;0.00;0.00;;;;;;;;5446649;26;8828;-73
2024/04/17 02:14:14;;;;;;;;;0.00;0.00;;;;;;;;5446957;26;9136;-73
2024/04/17 02:16:39;;;;;;;;;2.00;0.00;;;;;;;;5446434;26;8820;-73
2024/04/17 02:19:04;;;;;;;;;0.00;0.00;;;;;;;;5446660;26;9541;-73
2024/04/17 02:21:30;;;;;;;;;0.00;0.00;;;;;;;;5448579;26;8828;-73
2024/04/17 02:23:55;;;;;;;;;0.00;0.00;;;;;;;;5450260;26;8848;-74
2024/04/17 02:26:20;;;;;;;;;0.00;0.00;;;;;;;;5450308;26;8828;-74
2024/04/17 02:28:45;;;;;;;;;0.00;0.00;;;;;;;;5450304;26;8812;-74
2024/04/17 02:31:10;;;;;;;;;0.00;0.00;;;;;;;;5448037;26;8854;-74
2024/04/17 02:33:36;;;;;;;;;0.00;0.00;;;;;;;;5440835;26;8840;-73
2024/04/17 02:36:01;;;;;;;;;0.00;0.00;;;;;;;;5413835;26;8926;-73
2024/04/17 02:38:26;;;;;;;;;0.75;0.00;;;;;;;;5414165;26;8852;-73
2024/04/17 02:40:51;;;;;;;;;0.75;0.00;;;;;;;;5414120;26;8828;-73
2024/04/17 02:43:17;;;;;;;;;0.00;0.00;;;;;;;;5414080;26;9673;-73
2024/04/17 02:45:42;;;;;;;;;0.00;0.00;;;;;;;;5413552;26;8886;-72
2024/04/17 02:48:07;;;;;;;;;0.00;0.00;;;;;;;;5413677;26;8897;-73
2024/04/17 02:50:37;;;;;;;;;0.50;0.50;;;;;;;;5413441;26;8864;-73
2024/04/17 02:53:02;;;;;;;;;1.75;0.75;;;;;;;;5412721;26;8860;-73
2024/04/17 02:55:27;;;;;;;;;0.00;0.00;;;;;;;;5449693;26;11520;-75
2024/04/17 02:57:53;;;;;;;;;0.00;0.00;;;;;;;;5447674;26;8978;-73
2024/04/17 03:00:19;;;;;;;;;0.75;0.00;;;;;;;;5449442;26;9037;-74
2024/04/17 03:02:44;;;;;;;;;0.25;0.00;;;;;;;;5449392;26;8923;-74
2024/04/17 03:05:09;;;;;;;;;0.00;0.00;;;;;;;;5449594;26;11578;-73
2024/04/17 03:07:34;;;;;;;;;1.75;0.00;;;;;;;;5449827;26;8832;-74
2024/04/17 03:09:59;;;;;;;;;0.00;0.00;;;;;;;;5449704;26;8823;-73
2024/04/17 03:12:25;;;;;;;;;1.00;0.00;;;;;;;;5449752;26;8858;-72
2024/04/17 03:14:50;;;;;;;;;0.00;0.00;;;;;;;;5448927;26;8871;-72
2024/04/17 03:17:15;;;;;;;;;0.00;0.00;;;;;;;;5448971;26;8824;-73
2024/04/17 03:19:41;;;;;;;;;1.00;1.00;;;;;;;;5449030;26;8836;-72
2024/04/17 03:22:06;;;;;;;;;3.00;0.00;;;;;;;;5449058;26;8828;-72
2024/04/17 03:24:31;;;;;;;;;0.00;0.00;;;;;;;;5449356;26;8863;-73
2024/04/17 03:26:57;;;;;;;;;1.00;0.00;;;;;;;;5449132;26;8847;-73
2024/04/17 03:29:22;;;;;;;;;0.00;0.00;;;;;;;;5449100;26;9517;-73
2024/04/17 03:31:47;;;;;;;;;0.00;0.00;;;;;;;;5449089;26;8855;-73
2024/04/17 03:34:13;;;;;;;;;0.00;0.00;;;;;;;;5448546;26;8886;-73
2024/04/17 03:36:38;;;;;;;;;1.00;0.75;;;;;;;;5448798;26;8919;-72
2024/04/17 03:39:03;;;;;;;;;1.00;0.00;;;;;;;;5448794;26;8824;-72
2024/04/17 03:41:28;;;;;;;;;2.00;1.00;;;;;;;;5448959;26;8840;-73
2024/04/17 03:43:54;;;;;;;;;2.00;1.00;;;;;;;;5448895;26;9519;-72
2024/04/17 03:46:19;;;;;;;;;1.75;0.75;;;;;;;;5448984;26;8835;-74
2024/04/17 03:48:44;;;;;;;;;0.50;0.50;;;;;;;;5449135;26;8955;-73
2024/04/17 03:51:09;;;;;;;;;0.00;0.00;;;;;;;;5449183;26;8840;-74
2024/04/17 03:53:34;;;;;;;;;0.25;0.00;;;;;;;;5448646;26;9085;-74
2024/04/17 03:56:00;;;;;;;;;2.00;1.00;;;;;;;;5449459;26;8816;-73
2024/04/17 03:58:25;;;;;;;;;1.00;0.00;;;;;;;;5448672;26;8823;-73
2024/04/17 04:00:50;;;;;;;;;0.25;0.25;;;;;;;;5448386;26;8828;-74
2024/04/17 04:03:15;;;;;;;;;0.00;0.00;;;;;;;;5448661;26;8835;-73
2024/04/17 04:05:44;;;;;;;;;0.00;0.00;;;;;;;;5448730;26;9523;-73
2024/04/17 04:08:09;;;;;;;;;0.00;0.00;;;;;;;;5448962;26;9029;-73
2024/04/17 04:10:35;;;;;;;;;1.25;0.00;;;;;;;;5448494;26;11609;-72
2024/04/17 04:13:00;;;;;;;;;1.00;0.00;;;;;;;;5448714;26;8820;-71
2024/04/17 04:15:25;;;;;;;;;0.00;0.00;;;;;;;;5448031;26;8843;-73
2024/04/17 04:17:51;;;;;;;;;0.00;0.00;;;;;;;;5448359;26;9020;-73
2024/04/17 04:20:16;;;;;;;;;0.00;0.00;;;;;;;;5448215;26;8920;-73
2024/04/17 04:22:41;;;;;;;;;2.50;0.00;;;;;;;;5448170;26;8853;-73
2024/04/17 04:25:06;;;;;;;;;0.00;0.00;;;;;;;;5448258;26;8852;-73
2024/04/17 04:27:32;;;;;;;;;0.75;0.00;;;;;;;;5448254;26;8858;-72
2024/04/17 04:29:57;;;;;;;;;0.00;0.00;;;;;;;;5448407;26;8831;-72
2024/04/17 04:32:22;;;;;;;;;1.00;1.00;;;;;;;;5448296;26;8895;-73
2024/04/17 04:34:47;;;;;;;;;2.00;0.75;;;;;;;;5448049;26;8855;-73
2024/04/17 04:37:13;;;;;;;;;1.00;1.00;;;;;;;;5447856;26;8851;-72
2024/04/17 04:39:38;;;;;;;;;0.00;0.00;;;;;;;;5448386;26;8844;-72
2024/04/17 04:42:03;;;;;;;;;0.00;0.00;;;;;;;;5448368;26;9560;-73
2024/04/17 04:44:29;;;;;;;;;0.00;0.00;;;;;;;;5435442;26;8840;-72
2024/04/17 04:46:56;;;;;;;;;2.00;0.00;;;;;;;;5424321;26;9864;-73
2024/04/17 04:49:21;;;;;;;;;0.00;0.00;;;;;;;;5411903;26;11574;-74
2024/04/17 04:51:46;;;;;;;;;0.00;0.00;;;;;;;;5415404;26;11889;-73
2024/04/17 04:54:12;;;;;;;;;0.00;0.00;;;;;;;;5433596;26;8935;-75
2024/04/17 04:56:37;;;;;;;;;1.00;1.00;;;;;;;;5420062;26;8809;-78
2024/04/17 04:59:02;;;;;;;;;0.00;0.00;;;;;;;;5411780;26;8915;-75
2024/04/17 05:01:27;;;;;;;;;6.00;1.25;;;;;;;;5422041;26;8868;-75
2024/04/17 05:03:52;;;;;;;;;1.25;1.00;;;;;;;;5428637;26;9069;-74
2024/04/17 05:06:18;;;;;;;;;0.00;0.00;;;;;;;;5416670;26;8824;-74
2024/04/17 05:08:43;;;;;;;;;0.00;0.00;;;;;;;;5417124;26;8844;-73
2024/04/17 05:11:10;;;;;;;;;0.00;0.00;;;;;;;;5430858;26;8867;-74
2024/04/17 05:13:35;;;;;;;;;0.00;0.00;;;;;;;;5436088;26;8832;-73
2024/04/17 05:16:01;;;;;;;;;0.00;0.00;;;;;;;;5439793;26;11551;-74
2024/04/17 05:18:26;;;;;;;;;2.00;0.75;;;;;;;;5439585;26;8821;-73
2024/04/17 05:20:51;;;;;;;;;1.50;0.00;;;;;;;;5437162;26;9568;-75
2024/04/17 05:23:16;;;;;;;;;1.00;1.00;;;;;;;;5440144;26;8832;-74
2024/04/17 05:25:44;;;;;;;;;1.50;1.00;;;;;;;;5435817;26;8820;-74
2024/04/17 05:28:09;;;;;;;;;1.00;0.50;;;;;;;;5432263;26;8863;-74
2024/04/17 05:30:34;;;;;;;;;1.25;0.75;;;;;;;;5416251;26;11647;-78
2024/04/17 05:33:00;;;;;;;;;1.00;1.00;;;;;;;;5411255;26;8871;-72
2024/04/17 05:35:25;;;;;;;;;1.00;1.00;;;;;;;;5410956;26;8848;-73
2024/04/17 05:37:51;;;;;;;;;1.50;0.00;;;;;;;;5411796;26;8850;-73
2024/04/17 05:40:16;;;;;;;;;1.00;0.00;;;;;;;;5411526;26;8828;-74
2024/04/17 05:42:41;;;;;;;;;1.00;1.00;;;;;;;;5411434;26;8836;-69
2024/04/17 05:45:06;;;;;;;;;1.50;0.00;;;;;;;;5410992;26;8856;-73
2024/04/17 05:47:32;;;;;;;;;0.00;0.00;;;;;;;;5411210;26;8836;-69
2024/04/17 05:49:57;;;;;;;;;1.00;1.00;;;;;;;;5411183;26;8832;-71
2024/04/17 05:52:22;;;;;;;;;2.75;2.00;;;;;;;;5410852;26;8921;-74
2024/04/17 05:54:47;;;;;;;;;1.25;1.25;;;;;;;;5438216;26;8844;-72
2024/04/17 05:57:13;;;;;;;;;2.50;2.50;;;;;;;;5450185;26;8844;-71
2024/04/17 05:59:38;;;;;;;;;1.25;1.00;;;;;;;;5450496;26;8871;-72
2024/04/17 06:02:03;;;;;;;;;5.00;3.00;;;;;;;;5450232;26;8836;-71
2024/04/17 06:04:31;;;;;;;;;5.00;2.00;;;;;;;;5449965;26;8913;-70
2024/04/17 06:06:57;;;;;;;;;3.00;2.00;;;;;;;;5445908;26;8843;-70
2024/04/17 06:09:23;;;;;;;;;2.00;1.00;;;;;;;;5449711;26;12593;-72
2024/04/17 06:11:48;;;;;;;;;5.00;1.75;;;;;;;;5450254;26;8848;-71
2024/04/17 06:14:13;;;;;;;;;6.00;3.00;;;;;;;;5448005;26;8870;-71
2024/04/17 06:16:38;;;;;;;;;2.50;2.00;;;;;;;;5449283;26;9674;-69
2024/04/17 06:19:04;;;;;;;;;6.50;3.50;;;;;;;;5449794;26;8858;-70
2024/04/17 06:21:29;;;;;;;;;8.75;5.75;;;;;;;;5450039;26;8877;-70
2024/04/17 06:23:54;;;;;;;;;8.50;6.25;;;;;;;;5449885;26;8917;-70
2024/04/17 06:26:19;;;;;;;;;10.75;9.25;;;;;;;;5449624;26;9518;-69
2024/04/17 06:28:45;;;;;;;;;2.75;2.00;;;;;;;;5449712;26;9140;-70
2024/04/17 06:31:10;;;;;;;;;6.00;3.00;;;;;;;;5447578;26;8812;-70
2024/04/17 06:33:35;;;;;;;;;4.00;2.00;;;;;;;;5447583;26;8856;-70
2024/04/17 06:36:01;;;;;;;;;1.50;1.25;;;;;;;;5449971;26;8870;-69
2024/04/17 06:38:26;;;;;;;;;2.00;2.00;;;;;;;;5449609;26;8824;-70
2024/04/17 06:40:51;;;;;;;;;1.00;1.00;;;;;;;;5449726;26;8836;-69
2024/04/17 06:43:17;;;;;;;;;1.00;1.00;;;;;;;;5449851;26;8836;-70
2024/04/17 06:45:42;;;;;;;;;3.50;3.00;;;;;;;;5449735;26;8855;-70
2024/04/17 06:48:08;;;;;;;;;3.00;3.00;;;;;;;;5449531;26;8852;-69
2024/04/17 06:50:34;;;;;;;;;4.00;1.50;;;;;;;;5449386;26;8836;-70
2024/04/17 06:52:59;;;;;;;;;5.75;2.00;;;;;;;;5449134;26;11562;-71
2024/04/17 06:55:25;;;;;;;;;1.75;1.00;;;;;;;;5449529;26;8851;-70
2024/04/17 06:57:50;;;;;;;;;1.50;1.50;;;;;;;;5449505;26;8812;-71
2024/04/17 07:00:16;;;;;;;;;1.00;1.00;;;;;;;;5447030;26;12383;-71
2024/04/17 07:02:41;;;;;;;;;1.25;0.25;;;;;;;;5447479;26;8836;-72
2024/04/17 07:05:06;;;;;;;;;1.25;0.00;;;;;;;;5447609;26;9682;-72
2024/04/17 07:07:31;;;;;;;;;0.75;0.00;;;;;;;;5446966;26;8967;-72
2024/04/17 07:09:57;;;;;;;;;0.00;0.00;;;;;;;;5449868;26;8848;-71
2024/04/17 07:12:22;;;;;;;;;0.00;0.00;;;;;;;;5449829;26;8851;-71
2024/04/17 07:14:48;;;;;;;;;1.00;0.25;;;;;;;;5449490;26;8886;-71
2024/04/17 07:17:14;;;;;;;;;12.00;8.50;;;;;;;;5449269;26;8820;-71
2024/04/17 07:19:39;;;;;;;;;1.50;1.50;;;;;;;;5448490;26;11593;-71
2024/04/17 07:22:04;;;;;;;;;3.00;1.00;;;;;;;;5448890;26;8907;-72
2024/04/17 07:24:30;;;;;;;;;1.00;0.00;;;;;;;;5438189;26;9006;-71
2024/04/17 07:26:55;;;;;;;;;0.25;0.25;;;;;;;;5413204;26;8840;-72
2024/04/17 07:29:20;;;;;;;;;0.25;0.25;;;;;;;;5412578;26;8823;-72
2024/04/17 07:31:47;;;;;;;;;2.50;1.00;;;;;;;;5412723;26;9075;-72
2024/04/17 07:34:12;;;;;;;;;1.00;1.00;;;;;;;;5412173;26;8832;-73
2024/04/17 07:36:39;;;;;;;;;0.00;0.00;;;;;;;;5412302;26;11645;-72
2024/04/17 07:39:04;;;;;;;;;2.00;1.00;;;;;;;;5412310;26;8824;-72
2024/04/17 07:41:29;;;;;;;;;0.25;0.00;;;;;;;;5412299;26;11639;-72
2024/04/17 07:43:58;;;;;;;;;1.00;1.00;;;;;;;;5410322;26;8840;-70
2024/04/17 07:46:23;;;;;;;;;6.00;4.00;;;;;;;;5412408;26;8839;-70
2024/04/17 07:48:51;;;;;;;;;0.00;0.00;;;;;;;;5412815;26;11497;-76
2024/04/17 07:51:17;;;;;;;;;2.00;1.25;;;;;;;;5410688;26;8847;-74
2024/04/17 07:53:42;;;;;;;;;1.00;1.00;;;;;;;;5422842;26;11536;-76
2024/04/17 07:56:07;;;;;;;;;0.00;0.00;;;;;;;;5442607;26;8847;-74
2024/04/17 07:58:32;;;;;;;;;2.25;1.75;;;;;;;;5428222;26;8844;-73
2024/04/17 08:00:58;;;;;;;;;0.75;0.75;;;;;;;;5431365;26;8873;-73
2024/04/17 08:03:23;;;;;;;;;2.00;2.00;;;;;;;;5427769;26;8832;-72
2024/04/17 08:05:48;;;;;;;;;1.00;0.00;;;;;;;;5429129;26;8840;-73
2024/04/17 08:08:14;;;;;;;;;1.50;1.00;;;;;;;;5429679;26;8858;-73
2024/04/17 08:10:39;;;;;;;;;0.50;0.50;;;;;;;;5428575;26;8859;-73
2024/04/17 08:13:11;;;;;;;;;6.75;6.00;;;;;;;;5429597;26;8858;-73
2024/04/17 08:15:38;;;;;;;;;1.00;1.00;;;;;;;;5429716;26;8824;-72
2024/04/17 08:18:04;;;;;;;;;2.00;1.00;;;;;;;;5425375;26;9423;-72
2024/04/17 08:20:30;;;;;;;;;2.00;1.00;;;;;;;;5412707;26;9283;-73
2024/04/17 08:22:56;;;;;;;;;2.00;1.00;;;;;;;;5411983;26;8858;-73
2024/04/17 08:25:21;;;;;;;;;1.00;1.00;;;;;;;;5447444;26;8936;-73
2024/04/17 08:27:46;;;;;;;;;1.00;1.00;;;;;;;;5448084;26;8928;-73
2024/04/17 08:30:12;;;;;;;;;0.67;0.67;;;;;;;;5438647;26;8847;-71
2024/04/17 08:32:39;;;;;;;;;0.67;0.67;;;;;;;;5429400;26;8844;-71
2024/04/17 08:35:05;;;;;;;;;0.00;0.00;;;;;;;;5430841;26;8969;-71
2024/04/17 08:37:30;;;;;;;;;0.00;0.00;;;;;;;;5413000;26;8832;-73
2024/04/17 08:39:55;;;;;;;;;0.00;0.00;;;;;;;;5409221;26;9606;-73
2024/04/17 08:42:22;;;;;;;;;1.00;1.00;;;;;;;;5412080;26;8871;-75
2024/04/17 08:44:48;;;;;;;;;3.25;2.00;;;;;;;;5409883;26;8909;-72
2024/04/17 08:47:14;;;;;;;;;1.00;1.00;;;;;;;;5414428;26;9574;-70
2024/04/17 08:49:40;;;;;;;;;0.25;0.25;;;;;;;;5420819;26;8860;-70
2024/04/17 08:52:05;;;;;;;;;0.00;0.00;;;;;;;;5416492;26;8874;-70
2024/04/17 08:54:32;;;;;;;;;0.00;0.00;;;;;;;;5428064;26;8875;-71
2024/04/17 08:56:57;;;;;;;;;0.00;0.00;;;;;;;;5430415;26;8809;-71
2024/04/17 08:59:23;;;;;;;;;0.00;0.00;;;;;;;;5429402;26;9864;-71
2024/04/17 09:01:49;;;;;;;;;2.00;0.00;;;;;;;;5427755;26;8820;-71
2024/04/17 09:04:16;;;;;;;;;0.75;0.00;;;;;;;;5430651;26;8908;-71
2024/04/17 09:06:41;;;;;;;;;0.00;0.00;;;;;;;;5428332;26;8924;-71
2024/04/17 09:09:08;;;;;;;;;1.00;1.00;;;;;;;;5427557;26;9022;-72
2024/04/17 09:11:35;;;;;;;;;0.00;0.00;;;;;;;;5430681;26;8827;-70
2024/04/17 09:14:00;;;;;;;;;0.00;0.00;;;;;;;;5427801;26;8828;-69
2024/04/17 09:16:25;;;;;;;;;1.00;1.00;;;;;;;;5427639;26;8832;-71
2024/04/17 09:18:50;;;;;;;;;0.00;0.00;;;;;;;;5430055;26;8911;-71
2024/04/17 09:21:16;;;;;;;;;0.00;0.00;;;;;;;;5424586;26;9126;-71
2024/04/17 09:23:41;;;;;;;;;0.00;0.00;;;;;;;;5440849;26;8832;-70
2024/04/17 09:26:16;;;;;;;;;0.00;0.00;;;;;;;;5446783;26;8976;-69
2024/04/17 09:28:42;;;;;;;;;0.50;0.50;;;;;;;;5440052;26;8828;-70
2024/04/17 09:31:08;;;;;;;;;0.00;0.00;;;;;;;;5425060;26;8872;-69
2024/04/17 09:33:34;;;;;;;;;0.00;0.00;;;;;;;;5427012;26;8852;-69
2024/04/17 09:36:02;;;;;;;;;0.67;0.00;;;;;;;;5429906;26;8874;-68
2024/04/17 09:38:27;;;;;;;;;0.00;0.00;;;;;;;;5424810;26;8894;-69
2024/04/17 09:40:53;;;;;;;;;0.67;0.00;;;;;;;;5427470;26;8824;-69
2024/04/17 09:43:29;;;;;;;;;0.00;0.00;;;;;;;;5429487;26;8843;-69
2024/04/17 09:46:00;;;;;;;;;2.75;1.00;;;;;;;;5428902;26;8852;-69
2024/04/17 09:48:27;;;;;;;;;0.00;0.00;;;;;;;;5427675;26;9617;-69
2024/04/17 09:50:55;;;;;;;;;4.00;3.25;;;;;;;;5433024;26;8883;-68
2024/04/17 09:53:21;;;;;;;;;1.00;1.00;;;;;;;;5446385;26;8848;-71
2024/04/17 09:55:47;;;;;;;;;21.25;15.75;;;;;;;;5446853;26;8851;-69
2024/04/17 09:58:13;;;;;;;;;9.75;9.75;;;;;;;;5446417;26;8816;-68
2024/04/17 10:00:39;;;;;;;;;2.00;0.00;;;;;;;;5446387;26;8832;-72
2024/04/17 10:03:06;;;;;;;;;0.00;0.00;;;;;;;;5444364;26;8824;-72
2024/04/17 10:05:32;;;;;;;;;1.50;1.50;;;;;;;;5435128;26;8848;-74
2024/04/17 10:07:58;;;;;;;;;7.33;5.00;;;;;;;;5422864;26;8894;-74
2024/04/17 10:10:24;;;;;;;;;1.75;1.00;;;;;;;;5410314;26;8929;-69
2024/04/17 10:12:52;;;;;;;;;0.00;0.00;;;;;;;;5409984;26;9085;-68
2024/04/17 10:15:17;;;;;;;;;0.00;0.00;;;;;;;;5409980;26;8976;-68
2024/04/17 10:17:43;;;;;;;;;6.67;5.00;;;;;;;;5407967;26;8911;-69
2024/04/17 10:20:27;;;;;;;;;18.67;15.33;;;;;;;;5409430;26;8949;-70
2024/04/17 10:23:01;;;;;;;;;7.00;3.25;;;;;;;;5409222;26;8960;-69
2024/04/17 10:25:26;;;;;;;;;4.25;3.25;;;;;;;;5409193;26;8872;-70
2024/04/17 10:27:52;;;;;;;;;10.67;8.00;;;;;;;;5409527;26;8856;-71
2024/04/17 10:30:17;;;;;;;;;9.33;8.67;;;;;;;;5409469;26;8929;-71
2024/04/17 10:32:43;;;;;;;;;2.67;1.33;;;;;;;;5409126;26;8866;-70
2024/04/17 10:35:16;;;;;;;;;2.00;2.00;;;;;;;;5406831;26;8960;-71
2024/04/17 10:37:44;;;;;;;;;5.75;3.00;;;;;;;;5408788;26;8828;-69
2024/04/17 10:40:10;;;;;;;;;1.00;1.00;;;;;;;;5419045;26;8820;-68
2024/04/17 10:42:36;;;;;;;;;1.50;0.75;;;;;;;;5426056;26;8890;-68
2024/04/17 10:45:03;;;;;;;;;1.00;1.00;;;;;;;;5415129;26;8879;-68
2024/04/17 10:47:28;;;;;;;;;0.50;0.50;;;;;;;;5412886;26;9554;-68
2024/04/17 10:49:58;;;;;;;;;1.00;1.00;;;;;;;;5411996;26;8972;-66
2024/04/17 10:52:24;;;;;;;;;0.75;0.75;;;;;;;;5409689;26;8906;-67
2024/04/17 10:54:50;;;;;;;;;2.50;1.00;;;;;;;;5436117;26;8820;-66
2024/04/17 10:57:16;;;;;;;;;1.00;1.00;;;;;;;;5448431;26;8855;-67
2024/04/17 10:59:48;;;;;;;;;1.00;1.00;;;;;;;;5448801;26;8881;-67
2024/04/17 11:02:13;;;;;;;;;0.00;0.00;;;;;;;;5448813;26;8832;-67
2024/04/17 11:04:38;;;;;;;;;0.00;0.00;;;;;;;;5448637;26;8865;-64
2024/04/17 11:07:07;;;;;;;;;0.50;0.50;;;;;;;;5448581;26;9686;-68
2024/04/17 11:09:32;;;;;;;;;0.00;0.00;;;;;;;;5447196;26;9553;-66
2024/04/17 11:11:58;;;;;;;;;1.33;1.33;;;;;;;;5445977;26;8836;-68
2024/04/17 11:14:23;;;;;;;;;0.67;0.00;;;;;;;;5444378;26;8962;-67
2024/04/17 11:16:48;;;;;;;;;0.00;0.00;;;;;;;;5442842;26;8820;-67
2024/04/17 11:19:14;;;;;;;;;0.00;0.00;;;;;;;;5445599;26;8863;-67
2024/04/17 11:21:39;;;;;;;;;0.00;0.00;;;;;;;;5443661;26;8863;-67
2024/04/17 11:24:05;;;;;;;;;0.00;0.00;;;;;;;;5443345;26;8864;-65
2024/04/17 11:26:31;;;;;;;;;0.00;0.00;;;;;;;;5446544;26;8828;-67
2024/04/17 11:28:56;;;;;;;;;1.00;0.00;;;;;;;;5448313;26;8848;-66
2024/04/17 11:31:22;;;;;;;;;1.00;0.00;;;;;;;;5448016;26;8923;-66
2024/04/17 11:33:47;;;;;;;;;0.00;0.00;;;;;;;;5447723;26;8862;-66
2024/04/17 11:36:14;;;;;;;;;0.00;0.00;;;;;;;;5447936;26;8903;-67
2024/04/17 11:38:45;;;;;;;;;0.00;0.00;;;;;;;;5445777;26;8842;-67
2024/04/17 11:41:11;;;;;;;;;0.00;0.00;;;;;;;;5447948;26;9682;-67
2024/04/17 11:43:36;;;;;;;;;0.50;0.50;;;;;;;;5447602;26;9695;-66
2024/04/17 11:46:01;;;;;;;;;1.25;0.00;;;;;;;;5448014;26;8929;-66
2024/04/17 11:48:27;;;;;;;;;1.75;0.75;;;;;;;;5448385;26;8848;-66
2024/04/17 11:50:52;;;;;;;;;0.00;0.00;;;;;;;;5447715;26;8839;-66
2024/04/17 11:53:17;;;;;;;;;1.00;0.00;;;;;;;;5447644;26;8903;-66
2024/04/17 11:55:42;;;;;;;;;0.50;0.50;;;;;;;;5448159;26;8796;-67
2024/04/17 11:58:08;;;;;;;;;0.00;0.00;;;;;;;;5447751;26;8828;-66
2024/04/17 12:00:33;;;;;;;;;1.00;0.00;;;;;;;;5447778;26;8854;-67
2024/04/17 12:02:58;;;;;;;;;0.00;0.00;;;;;;;;5445744;26;8831;-66
2024/04/17 12:05:24;;;;;;;;;0.00;0.00;;;;;;;;5445657;26;8829;-67
2024/04/17 12:07:50;;;;;;;;;0.00;0.00;;;;;;;;5447969;26;8985;-66
2024/04/17 12:10:17;;;;;;;;;0.00;0.00;;;;;;;;5445989;26;9514;-67
2024/04/17 12:12:42;;;;;;;;;0.00;0.00;;;;;;;;5445599;26;10855;-66
2024/04/17 12:15:07;;;;;;;;;0.00;0.00;;;;;;;;5447716;26;11148;-66
2024/04/17 12:17:32;;;;;;;;;0.00;0.00;;;;;;;;5447106;26;8842;-67
2024/04/17 12:19:58;;;;;;;;;1.00;0.00;;;;;;;;5447505;26;9607;-66
2024/04/17 12:22:23;;;;;;;;;0.00;0.00;;;;;;;;5447343;26;9081;-66
2024/04/17 12:27:32;;;;;;;;;0.00;0.00;;;;;;;;5447779;26;8787;-66
2024/04/17 12:29:57;;;;;;;;;1.00;0.00;;;;;;;;5447535;26;12019;-67
2024/04/17 12:32:23;;;;;;;;;0.00;0.00;;;;;;;;5447747;26;8792;-67
2024/04/17 12:34:48;;;;;;;;;1.00;1.00;;;;;;;;5447474;26;8886;-66
2024/04/17 12:37:14;;;;;;;;;0.00;0.00;;;;;;;;5447478;26;8824;-67
2024/04/17 12:39:42;;;;;;;;;0.00;0.00;;;;;;;;5447093;26;8902;-66
2024/04/17 12:42:07;;;;;;;;;3.50;0.00;;;;;;;;5447175;26;10741;-66
2024/04/17 12:44:33;;;;;;;;;0.00;0.00;;;;;;;;5447198;26;10669;-67
2024/04/17 12:46:58;;;;;;;;;6.25;6.25;;;;;;;;5446996;26;8869;-67
2024/04/17 12:49:23;;;;;;;;;0.00;0.00;;;;;;;;5447273;26;8859;-66
2024/04/17 12:51:51;;;;;;;;;5.00;5.00;;;;;;;;5446624;26;9135;-66
2024/04/17 12:54:17;;;;;;;;;0.00;0.00;;;;;;;;5446568;26;8844;-67
2024/04/17 12:56:42;;;;;;;;;0.00;0.00;;;;;;;;5447119;26;10518;-67
2024/04/17 12:59:09;;;;;;;;;0.00;0.00;;;;;;;;5446587;26;8832;-67
2024/04/17 13:01:34;;;;;;;;;0.00;0.00;;;;;;;;5447085;26;8808;-67
2024/04/17 13:04:01;;;;;;;;;0.00;0.00;;;;;;;;5445727;26;10451;-67
2024/04/17 13:06:26;;;;;;;;;0.00;0.00;;;;;;;;5444777;26;8843;-67
2024/04/17 13:08:53;;;;;;;;;0.00;0.00;;;;;;;;5447134;26;10381;-67
2024/04/17 13:11:18;;;;;;;;;0.00;0.00;;;;;;;;5444597;26;8896;-67
2024/04/17 13:13:44;;;;;;;;;0.50;0.50;;;;;;;;5444428;26;10301;-67
2024/04/17 13:16:09;;;;;;;;;0.75;0.00;;;;;;;;5446637;26;8828;-67
2024/04/17 13:18:35;;;;;;;;;0.00;0.00;;;;;;;;5446552;26;9607;-67
2024/04/17 13:21:01;;;;;;;;;0.00;0.00;;;;;;;;5446621;26;8835;-67
2024/04/17 13:23:27;;;;;;;;;0.00;0.00;;;;;;;;5446320;26;10264;-67
2024/04/17 13:25:56;;;;;;;;;0.00;0.00;;;;;;;;5446351;26;8824;-66
2024/04/17 13:28:22;;;;;;;;;0.00;0.00;;;;;;;;5444048;26;10051;-68
2024/04/17 13:30:53;;;;;;;;;0.00;0.00;;;;;;;;5444393;26;10881;-67
2024/04/17 13:33:19;;;;;;;;;0.00;0.00;;;;;;;;5446580;26;10193;-68
2024/04/17 13:35:51;;;;;;;;;0.00;0.00;;;;;;;;5446228;26;10121;-67
2024/04/17 13:38:17;;;;;;;;;0.00;0.00;;;;;;;;5446058;26;8933;-66
2024/04/17 13:40:42;;;;;;;;;0.00;0.00;;;;;;;;5446052;26;10237;-66
2024/04/17 13:43:07;;;;;;;;;0.00;0.00;;;;;;;;5445904;26;8940;-66
2024/04/17 13:45:32;;;;;;;;;0.00;0.00;;;;;;;;5446081;26;9644;-66
2024/04/17 13:47:58;;;;;;;;;0.00;0.00;;;;;;;;5446131;26;9004;-66
2024/04/17 13:50:24;;;;;;;;;1.00;0.00;;;;;;;;5446132;26;9067;-67
2024/04/17 13:52:50;;;;;;;;;0.00;0.00;;;;;;;;5446143;26;8815;-67
2024/04/17 13:55:15;;;;;;;;;0.00;0.00;;;;;;;;5446057;26;9880;-67
2024/04/17 13:57:41;;;;;;;;;0.00;0.00;;;;;;;;5445739;26;10378;-66
2024/04/17 14:00:06;;;;;;;;;0.00;0.00;;;;;;;;5445635;26;8914;-67
2024/04/17 14:02:31;;;;;;;;;0.00;0.00;;;;;;;;5445704;26;8856;-67
2024/04/17 14:04:56;;;;;;;;;0.75;0.75;;;;;;;;5445553;26;8851;-67
2024/04/17 14:07:22;;;;;;;;;0.00;0.00;;;;;;;;5446312;26;8820;-67
2024/04/17 14:09:50;;;;;;;;;0.00;0.00;;;;;;;;5446341;26;8843;-67
2024/04/17 14:12:16;;;;;;;;;0.00;0.00;;;;;;;;5445860;26;8828;-67
2024/04/17 14:14:41;;;;;;;;;0.00;0.00;;;;;;;;5443574;26;10528;-68
2024/04/17 14:17:07;;;;;;;;;0.25;0.25;;;;;;;;5447623;26;8836;-67
2024/04/17 14:19:32;;;;;;;;;0.00;0.00;;;;;;;;5448814;26;8840;-67
2024/04/17 14:21:58;;;;;;;;;0.00;0.00;;;;;;;;5449504;26;8839;-67
2024/04/17 14:24:23;;;;;;;;;0.00;0.00;;;;;;;;5447171;26;8947;-67
2024/04/17 14:26:48;;;;;;;;;1.00;0.00;;;;;;;;5447113;26;8839;-67
2024/04/17 14:29:13;;;;;;;;;1.25;0.00;;;;;;;;5414846;26;8855;-67
2024/04/17 14:31:38;;;;;;;;;0.75;0.00;;;;;;;;5412892;26;8840;-66
2024/04/17 14:34:04;;;;;;;;;0.00;0.00;;;;;;;;5412991;26;8863;-67
2024/04/17 14:36:29;;;;;;;;;0.00;0.00;;;;;;;;5413315;26;8863;-68
2024/04/17 14:38:54;;;;;;;;;0.25;0.25;;;;;;;;5411257;26;8855;-68
2024/04/17 14:41:20;;;;;;;;;0.00;0.00;;;;;;;;5413379;26;8844;-68
2024/04/17 14:43:45;;;;;;;;;0.25;0.00;;;;;;;;5410659;26;8844;-68
2024/04/17 14:46:11;;;;;;;;;0.00;0.00;;;;;;;;5412646;26;8885;-68
2024/04/17 14:48:36;;;;;;;;;1.00;1.00;;;;;;;;5411474;26;8844;-68